KFME

Details ICAO KFME (FME)
Name TIPTON
Region United States
Timezone America/New_York (UTC-4.0)
Plans Departing 30
Arriving 12
Stats Elevation 150 ft / 46 m (AMSL)
Location 39.085251° -76.759547°
Runways 1
Magnetic Variation 11.036° W
Sunrise 2018-05-23 09:49:17 UTC / 2018-05-23 05:49:17 Local
Sunset 2018-05-24 00:21:12 UTC / 2018-05-23 20:21:12 Local
Advertisement - Login to hide

Runways

ID Width Length Bearing (true) Bearing (mag) Surface Threshold Offset Overrun Length
10 75 ft / 23 m 2,994 ft / 912 m 93.94° 104.98° Asphalt 0 ft / 0 m 300 ft / 91 m
28 75 ft / 23 m 2,994 ft / 912 m 273.95° 284.99° Asphalt 0 ft / 0 m 500 ft / 152 m

Map

Weather


0- 5 10 15 20 25 30 35+ Temperature / ° C

Clouds and Precipitation
Forecast for 2018-05-23 06:00 UTC. Updated 3 hours ago

Ground ~20,000 ft ~40,000 ft Winds

METAR

KFME 230757Z AUTO 00000KT 3SM CLR 18/17 A2994 RMK AO1

TAF

Not found

Frequencies

Recorded 123.92 MHz AWOS 3
Approach 119.70 MHz POTOMAC APP DEP
Unicom 123.05 MHz CTAF/UNICOM
Warning: Do not use this data for real-world aviation or navigation. No guarantee of current accuracy is given.